sensor_id;sensor_type;location;lat;lon;timestamp;P1;durP1;ratioP1;P2;durP2;ratioP2
33421;SDS011;19763;55.798;37.782;2022-12-29T00:00:02;4.20;;;2.20;;
33421;SDS011;19763;55.798;37.782;2022-12-29T00:02:32;5.93;;;2.83;;
33421;SDS011;19763;55.798;37.782;2022-12-29T00:05:00;5.72;;;2.58;;
33421;SDS011;19763;55.798;37.782;2022-12-29T00:07:26;4.32;;;2.55;;
33421;SDS011;19763;55.798;37.782;2022-12-29T00:09:52;4.72;;;2.67;;
33421;SDS011;19763;55.798;37.782;2022-12-29T00:12:19;3.78;;;2.45;;
33421;SDS011;19763;55.798;37.782;2022-12-29T00:14:45;6.45;;;2.72;;
33421;SDS011;19763;55.798;37.782;2022-12-29T00:17:29;4.85;;;2.92;;
33421;SDS011;19763;55.798;37.782;2022-12-29T00:19:55;6.45;;;3.03;;
33421;SDS011;19763;55.798;37.782;2022-12-29T00:22:39;5.80;;;2.80;;
33421;SDS011;19763;55.798;37.782;2022-12-29T00:25:23;7.53;;;2.78;;
33421;SDS011;19763;55.798;37.782;2022-12-29T00:28:08;4.45;;;2.88;;
33421;SDS011;19763;55.798;37.782;2022-12-29T00:30:52;8.48;;;3.58;;
33421;SDS011;19763;55.798;37.782;2022-12-29T00:33:37;5.22;;;2.97;;
33421;SDS011;19763;55.798;37.782;2022-12-29T00:36:28;5.10;;;3.10;;
33421;SDS011;19763;55.798;37.782;2022-12-29T00:39:06;5.25;;;2.38;;
33421;SDS011;19763;55.798;37.782;2022-12-29T00:41:54;5.65;;;2.90;;
33421;SDS011;19763;55.798;37.782;2022-12-29T00:44:38;4.75;;;3.33;;
33421;SDS011;19763;55.798;37.782;2022-12-29T00:47:03;6.18;;;2.92;;
33421;SDS011;19763;55.798;37.782;2022-12-29T00:49:29;5.55;;;3.10;;
33421;SDS011;19763;55.798;37.782;2022-12-29T00:52:00;6.55;;;3.03;;
33421;SDS011;19763;55.798;37.782;2022-12-29T00:54:30;3.67;;;2.72;;
33421;SDS011;19763;55.798;37.782;2022-12-29T00:56:58;4.10;;;2.75;;
33421;SDS011;19763;55.798;37.782;2022-12-29T00:59:24;5.20;;;2.35;;
33421;SDS011;19763;55.798;37.782;2022-12-29T01:01:50;4.40;;;2.17;;
33421;SDS011;19763;55.798;37.782;2022-12-29T01:04:17;2.80;;;1.92;;
33421;SDS011;19763;55.798;37.782;2022-12-29T01:06:43;4.55;;;2.10;;
33421;SDS011;19763;55.798;37.782;2022-12-29T01:09:09;4.88;;;1.88;;
33421;SDS011;19763;55.798;37.782;2022-12-29T01:11:54;2.35;;;1.67;;
33421;SDS011;19763;55.798;37.782;2022-12-29T01:14:20;3.65;;;1.70;;
33421;SDS011;19763;55.798;37.782;2022-12-29T01:16:46;6.13;;;2.08;;
33421;SDS011;19763;55.798;37.782;2022-12-29T01:19:12;5.32;;;1.75;;
33421;SDS011;19763;55.798;37.782;2022-12-29T01:21:39;4.10;;;1.98;;
33421;SDS011;19763;55.798;37.782;2022-12-29T01:24:04;4.55;;;1.75;;
33421;SDS011;19763;55.798;37.782;2022-12-29T01:26:30;4.00;;;1.90;;
33421;SDS011;19763;55.798;37.782;2022-12-29T01:28:56;6.35;;;1.90;;
33421;SDS011;19763;55.798;37.782;2022-12-29T01:31:21;3.00;;;1.95;;
33421;SDS011;19763;55.798;37.782;2022-12-29T01:33:47;5.82;;;2.28;;
33421;SDS011;19763;55.798;37.782;2022-12-29T01:36:13;3.08;;;1.70;;
33421;SDS011;19763;55.798;37.782;2022-12-29T01:38:40;4.40;;;2.05;;
33421;SDS011;19763;55.798;37.782;2022-12-29T01:41:07;4.25;;;1.83;;
33421;SDS011;19763;55.798;37.782;2022-12-29T01:46:22;3.03;;;1.45;;
33421;SDS011;19763;55.798;37.782;2022-12-29T01:48:49;3.90;;;1.48;;
33421;SDS011;19763;55.798;37.782;2022-12-29T01:51:18;5.93;;;1.88;;
33421;SDS011;19763;55.798;37.782;2022-12-29T01:53:46;3.60;;;1.25;;
33421;SDS011;19763;55.798;37.782;2022-12-29T01:56:12;4.03;;;1.50;;
33421;SDS011;19763;55.798;37.782;2022-12-29T01:58:43;2.10;;;1.33;;
33421;SDS011;19763;55.798;37.782;2022-12-29T02:01:11;5.20;;;1.88;;
33421;SDS011;19763;55.798;37.782;2022-12-29T02:03:38;4.90;;;1.65;;
33421;SDS011;19763;55.798;37.782;2022-12-29T02:06:05;3.90;;;1.42;;
33421;SDS011;19763;55.798;37.782;2022-12-29T03:46:57;8.07;;;3.03;;
33421;SDS011;19763;55.798;37.782;2022-12-29T03:49:23;6.85;;;2.40;;
33421;SDS011;19763;55.798;37.782;2022-12-29T03:51:48;8.88;;;2.85;;
33421;SDS011;19763;55.798;37.782;2022-12-29T03:54:14;7.93;;;3.20;;
33421;SDS011;19763;55.798;37.782;2022-12-29T03:56:39;7.78;;;3.15;;
33421;SDS011;19763;55.798;37.782;2022-12-29T03:59:05;9.30;;;3.80;;
33421;SDS011;19763;55.798;37.782;2022-12-29T04:01:30;6.22;;;3.00;;
33421;SDS011;19763;55.798;37.782;2022-12-29T04:03:56;5.63;;;2.90;;
33421;SDS011;19763;55.798;37.782;2022-12-29T04:06:21;9.70;;;3.20;;
33421;SDS011;19763;55.798;37.782;2022-12-29T04:08:47;4.82;;;2.63;;
33421;SDS011;19763;55.798;37.782;2022-12-29T04:11:12;6.38;;;2.92;;
33421;SDS011;19763;55.798;37.782;2022-12-29T04:13:38;5.60;;;2.72;;
33421;SDS011;19763;55.798;37.782;2022-12-29T04:16:06;4.32;;;2.70;;
33421;SDS011;19763;55.798;37.782;2022-12-29T04:18:31;9.40;;;2.88;;
33421;SDS011;19763;55.798;37.782;2022-12-29T04:20:57;6.68;;;2.80;;
33421;SDS011;19763;55.798;37.782;2022-12-29T04:23:26;7.30;;;2.97;;
33421;SDS011;19763;55.798;37.782;2022-12-29T04:25:53;4.85;;;2.67;;
33421;SDS011;19763;55.798;37.782;2022-12-29T04:28:18;8.02;;;3.42;;
33421;SDS011;19763;55.798;37.782;2022-12-29T04:30:44;7.57;;;2.88;;
33421;SDS011;19763;55.798;37.782;2022-12-29T04:33:10;8.85;;;2.92;;
33421;SDS011;19763;55.798;37.782;2022-12-29T04:35:36;6.90;;;3.17;;
33421;SDS011;19763;55.798;37.782;2022-12-29T04:38:02;7.38;;;3.28;;
33421;SDS011;19763;55.798;37.782;2022-12-29T04:40:28;7.57;;;2.80;;
33421;SDS011;19763;55.798;37.782;2022-12-29T04:42:53;6.95;;;2.95;;
33421;SDS011;19763;55.798;37.782;2022-12-29T04:45:19;6.60;;;2.70;;
33421;SDS011;19763;55.798;37.782;2022-12-29T04:47:45;5.65;;;3.33;;
33421;SDS011;19763;55.798;37.782;2022-12-29T04:50:10;8.15;;;3.20;;
33421;SDS011;19763;55.798;37.782;2022-12-29T04:52:36;7.03;;;2.78;;
33421;SDS011;19763;55.798;37.782;2022-12-29T04:55:02;7.30;;;2.90;;
33421;SDS011;19763;55.798;37.782;2022-12-29T04:57:28;7.00;;;3.17;;
33421;SDS011;19763;55.798;37.782;2022-12-29T04:59:54;7.63;;;3.22;;
33421;SDS011;19763;55.798;37.782;2022-12-29T05:02:20;7.20;;;3.47;;
33421;SDS011;19763;55.798;37.782;2022-12-29T05:04:45;7.30;;;3.72;;
33421;SDS011;19763;55.798;37.782;2022-12-29T05:07:12;9.10;;;4.25;;
33421;SDS011;19763;55.798;37.782;2022-12-29T05:09:38;7.75;;;3.30;;
33421;SDS011;19763;55.798;37.782;2022-12-29T05:12:03;6.15;;;3.10;;
33421;SDS011;19763;55.798;37.782;2022-12-29T05:14:29;5.25;;;3.00;;
33421;SDS011;19763;55.798;37.782;2022-12-29T05:16:55;10.82;;;3.10;;
33421;SDS011;19763;55.798;37.782;2022-12-29T05:19:21;7.22;;;3.25;;
33421;SDS011;19763;55.798;37.782;2022-12-29T05:21:46;5.35;;;2.67;;
33421;SDS011;19763;55.798;37.782;2022-12-29T05:24:12;5.00;;;2.67;;
33421;SDS011;19763;55.798;37.782;2022-12-29T05:26:37;5.85;;;3.00;;
33421;SDS011;19763;55.798;37.782;2022-12-29T05:29:03;4.55;;;2.90;;
33421;SDS011;19763;55.798;37.782;2022-12-29T05:31:28;8.13;;;3.17;;
33421;SDS011;19763;55.798;37.782;2022-12-29T05:33:54;7.63;;;3.03;;
33421;SDS011;19763;55.798;37.782;2022-12-29T05:36:20;4.63;;;2.80;;
33421;SDS011;19763;55.798;37.782;2022-12-29T05:38:45;7.82;;;3.08;;
33421;SDS011;19763;55.798;37.782;2022-12-29T05:41:11;4.68;;;2.90;;
33421;SDS011;19763;55.798;37.782;2022-12-29T05:43:37;6.20;;;2.92;;
33421;SDS011;19763;55.798;37.782;2022-12-29T05:46:02;3.72;;;2.40;;
33421;SDS011;19763;55.798;37.782;2022-12-29T05:48:28;5.80;;;2.90;;
33421;SDS011;19763;55.798;37.782;2022-12-29T05:50:54;9.00;;;3.40;;
33421;SDS011;19763;55.798;37.782;2022-12-29T05:53:19;6.43;;;3.60;;
33421;SDS011;19763;55.798;37.782;2022-12-29T05:55:48;8.93;;;3.45;;
33421;SDS011;19763;55.798;37.782;2022-12-29T05:58:17;7.53;;;3.70;;
33421;SDS011;19763;55.798;37.782;2022-12-29T06:00:43;9.50;;;4.00;;
33421;SDS011;19763;55.798;37.782;2022-12-29T06:03:09;9.20;;;4.25;;
33421;SDS011;19763;55.798;37.782;2022-12-29T06:05:34;6.82;;;4.28;;
33421;SDS011;19763;55.798;37.782;2022-12-29T06:08:00;8.15;;;4.82;;
33421;SDS011;19763;55.798;37.782;2022-12-29T06:10:26;9.13;;;5.03;;
33421;SDS011;19763;55.798;37.782;2022-12-29T06:12:51;13.43;;;5.30;;
33421;SDS011;19763;55.798;37.782;2022-12-29T06:15:17;7.80;;;4.60;;
33421;SDS011;19763;55.798;37.782;2022-12-29T06:17:43;10.32;;;5.45;;
33421;SDS011;19763;55.798;37.782;2022-12-29T06:20:09;10.25;;;5.47;;
33421;SDS011;19763;55.798;37.782;2022-12-29T06:22:35;10.00;;;5.68;;
33421;SDS011;19763;55.798;37.782;2022-12-29T06:25:01;10.13;;;5.80;;
33421;SDS011;19763;55.798;37.782;2022-12-29T06:27:28;12.25;;;5.72;;
33421;SDS011;19763;55.798;37.782;2022-12-29T06:29:54;8.70;;;5.70;;
33421;SDS011;19763;55.798;37.782;2022-12-29T06:32:19;9.48;;;5.63;;
33421;SDS011;19763;55.798;37.782;2022-12-29T06:35:05;13.80;;;6.70;;
33421;SDS011;19763;55.798;37.782;2022-12-29T06:37:31;12.95;;;6.47;;
33421;SDS011;19763;55.798;37.782;2022-12-29T06:39:57;12.20;;;6.78;;
33421;SDS011;19763;55.798;37.782;2022-12-29T06:42:23;9.07;;;5.93;;
33421;SDS011;19763;55.798;37.782;2022-12-29T06:44:49;13.07;;;7.45;;
33421;SDS011;19763;55.798;37.782;2022-12-29T06:47:14;11.73;;;6.65;;
33421;SDS011;19763;55.798;37.782;2022-12-29T06:49:40;14.15;;;7.13;;
33421;SDS011;19763;55.798;37.782;2022-12-29T06:52:06;9.38;;;6.38;;
33421;SDS011;19763;55.798;37.782;2022-12-29T06:54:31;12.05;;;6.40;;
33421;SDS011;19763;55.798;37.782;2022-12-29T06:56:57;9.90;;;6.03;;
33421;SDS011;19763;55.798;37.782;2022-12-29T06:59:23;8.25;;;5.95;;
33421;SDS011;19763;55.798;37.782;2022-12-29T07:01:49;7.90;;;5.53;;
33421;SDS011;19763;55.798;37.782;2022-12-29T07:04:15;6.97;;;5.32;;
33421;SDS011;19763;55.798;37.782;2022-12-29T07:06:41;8.18;;;5.70;;
33421;SDS011;19763;55.798;37.782;2022-12-29T07:09:07;8.43;;;5.10;;
33421;SDS011;19763;55.798;37.782;2022-12-29T07:11:34;9.68;;;5.28;;
33421;SDS011;19763;55.798;37.782;2022-12-29T07:14:00;9.65;;;5.80;;
33421;SDS011;19763;55.798;37.782;2022-12-29T07:16:27;8.93;;;5.82;;
33421;SDS011;19763;55.798;37.782;2022-12-29T07:18:54;7.47;;;5.32;;
33421;SDS011;19763;55.798;37.782;2022-12-29T07:21:20;10.43;;;5.97;;
33421;SDS011;19763;55.798;37.782;2022-12-29T07:23:46;8.65;;;6.10;;
33421;SDS011;19763;55.798;37.782;2022-12-29T07:26:13;11.07;;;6.05;;
33421;SDS011;19763;55.798;37.782;2022-12-29T07:28:40;17.55;;;9.02;;
33421;SDS011;19763;55.798;37.782;2022-12-29T07:31:09;8.13;;;6.07;;
33421;SDS011;19763;55.798;37.782;2022-12-29T07:33:39;9.77;;;6.30;;
33421;SDS011;19763;55.798;37.782;2022-12-29T07:36:05;11.68;;;7.00;;
33421;SDS011;19763;55.798;37.782;2022-12-29T07:38:31;11.63;;;7.03;;
33421;SDS011;19763;55.798;37.782;2022-12-29T07:40:57;12.02;;;7.43;;
33421;SDS011;19763;55.798;37.782;2022-12-29T07:43:23;11.38;;;7.28;;
33421;SDS011;19763;55.798;37.782;2022-12-29T07:45:49;11.60;;;7.47;;
33421;SDS011;19763;55.798;37.782;2022-12-29T07:48:14;11.82;;;7.85;;
33421;SDS011;19763;55.798;37.782;2022-12-29T07:50:40;11.05;;;7.18;;
33421;SDS011;19763;55.798;37.782;2022-12-29T07:53:05;15.85;;;8.73;;
33421;SDS011;19763;55.798;37.782;2022-12-29T07:55:31;12.27;;;6.95;;
33421;SDS011;19763;55.798;37.782;2022-12-29T07:57:57;14.15;;;8.13;;
33421;SDS011;19763;55.798;37.782;2022-12-29T08:00:22;19.23;;;8.40;;
33421;SDS011;19763;55.798;37.782;2022-12-29T08:02:48;12.00;;;7.88;;
33421;SDS011;19763;55.798;37.782;2022-12-29T08:05:14;13.38;;;8.27;;
33421;SDS011;19763;55.798;37.782;2022-12-29T08:07:42;15.02;;;9.38;;
33421;SDS011;19763;55.798;37.782;2022-12-29T08:10:09;15.73;;;8.80;;
33421;SDS011;19763;55.798;37.782;2022-12-29T08:12:37;11.15;;;8.68;;
33421;SDS011;19763;55.798;37.782;2022-12-29T08:15:03;17.10;;;9.80;;
33421;SDS011;19763;55.798;37.782;2022-12-29T08:17:30;14.88;;;9.07;;
33421;SDS011;19763;55.798;37.782;2022-12-29T08:19:55;14.68;;;9.00;;
33421;SDS011;19763;55.798;37.782;2022-12-29T08:22:22;14.93;;;9.77;;
33421;SDS011;19763;55.798;37.782;2022-12-29T08:24:48;14.48;;;9.82;;
33421;SDS011;19763;55.798;37.782;2022-12-29T08:27:13;16.48;;;9.20;;
33421;SDS011;19763;55.798;37.782;2022-12-29T08:29:39;13.57;;;9.10;;
33421;SDS011;19763;55.798;37.782;2022-12-29T08:32:04;12.70;;;7.85;;
33421;SDS011;19763;55.798;37.782;2022-12-29T08:34:31;12.98;;;8.10;;
33421;SDS011;19763;55.798;37.782;2022-12-29T08:36:57;12.10;;;6.55;;
33421;SDS011;19763;55.798;37.782;2022-12-29T08:39:23;11.27;;;6.40;;
33421;SDS011;19763;55.798;37.782;2022-12-29T08:41:48;13.25;;;7.10;;
33421;SDS011;19763;55.798;37.782;2022-12-29T08:44:14;10.85;;;6.40;;
33421;SDS011;19763;55.798;37.782;2022-12-29T08:46:39;13.57;;;8.13;;
33421;SDS011;19763;55.798;37.782;2022-12-29T08:49:05;10.77;;;7.18;;
33421;SDS011;19763;55.798;37.782;2022-12-29T08:51:31;14.68;;;8.10;;
33421;SDS011;19763;55.798;37.782;2022-12-29T08:53:56;17.42;;;8.70;;
33421;SDS011;19763;55.798;37.782;2022-12-29T08:56:22;11.90;;;8.00;;
33421;SDS011;19763;55.798;37.782;2022-12-29T08:58:49;15.10;;;8.55;;
33421;SDS011;19763;55.798;37.782;2022-12-29T09:01:17;16.23;;;8.95;;
33421;SDS011;19763;55.798;37.782;2022-12-29T09:03:43;16.50;;;9.07;;
33421;SDS011;19763;55.798;37.782;2022-12-29T09:06:08;20.13;;;9.85;;
33421;SDS011;19763;55.798;37.782;2022-12-29T09:08:34;15.00;;;8.68;;
33421;SDS011;19763;55.798;37.782;2022-12-29T09:11:07;17.33;;;9.05;;
33421;SDS011;19763;55.798;37.782;2022-12-29T09:13:58;13.77;;;8.48;;
33421;SDS011;19763;55.798;37.782;2022-12-29T09:16:24;12.80;;;8.35;;
33421;SDS011;19763;55.798;37.782;2022-12-29T09:18:50;15.18;;;8.35;;
33421;SDS011;19763;55.798;37.782;2022-12-29T09:21:16;17.70;;;9.77;;
33421;SDS011;19763;55.798;37.782;2022-12-29T09:23:41;16.58;;;8.68;;
33421;SDS011;19763;55.798;37.782;2022-12-29T09:26:07;19.35;;;8.50;;
33421;SDS011;19763;55.798;37.782;2022-12-29T09:28:33;13.57;;;7.93;;
33421;SDS011;19763;55.798;37.782;2022-12-29T09:31:00;16.05;;;8.65;;
33421;SDS011;19763;55.798;37.782;2022-12-29T09:33:26;14.15;;;8.30;;
33421;SDS011;19763;55.798;37.782;2022-12-29T09:35:52;14.30;;;8.57;;
33421;SDS011;19763;55.798;37.782;2022-12-29T09:38:20;13.63;;;8.60;;
33421;SDS011;19763;55.798;37.782;2022-12-29T09:40:49;23.40;;;8.73;;
33421;SDS011;19763;55.798;37.782;2022-12-29T09:43:20;13.43;;;7.72;;
33421;SDS011;19763;55.798;37.782;2022-12-29T09:46:03;13.93;;;8.18;;
33421;SDS011;19763;55.798;37.782;2022-12-29T09:48:45;10.27;;;7.45;;
33421;SDS011;19763;55.798;37.782;2022-12-29T09:51:16;11.95;;;7.68;;
33421;SDS011;19763;55.798;37.782;2022-12-29T09:54:15;12.07;;;7.90;;
33421;SDS011;19763;55.798;37.782;2022-12-29T09:56:54;12.90;;;7.60;;
33421;SDS011;19763;55.798;37.782;2022-12-29T09:59:22;11.90;;;7.75;;
33421;SDS011;19763;55.798;37.782;2022-12-29T10:02:29;14.15;;;7.53;;
33421;SDS011;19763;55.798;37.782;2022-12-29T10:05:04;11.63;;;7.15;;
33421;SDS011;19763;55.798;37.782;2022-12-29T10:15:53;15.35;;;8.25;;
33421;SDS011;19763;55.798;37.782;2022-12-29T10:21:22;17.67;;;9.73;;
33421;SDS011;19763;55.798;37.782;2022-12-29T10:24:10;14.13;;;10.13;;
33421;SDS011;19763;55.798;37.782;2022-12-29T10:26:39;14.85;;;8.77;;
33421;SDS011;19763;55.798;37.782;2022-12-29T10:29:12;17.73;;;9.73;;
33421;SDS011;19763;55.798;37.782;2022-12-29T10:32:34;16.02;;;9.98;;
33421;SDS011;19763;55.798;37.782;2022-12-29T10:35:21;17.75;;;10.27;;
33421;SDS011;19763;55.798;37.782;2022-12-29T10:40:52;15.40;;;10.70;;
33421;SDS011;19763;55.798;37.782;2022-12-29T10:43:30;15.40;;;10.82;;
33421;SDS011;19763;55.798;37.782;2022-12-29T10:46:08;21.80;;;12.13;;
33421;SDS011;19763;55.798;37.782;2022-12-29T10:48:41;15.48;;;11.02;;
33421;SDS011;19763;55.798;37.782;2022-12-29T10:51:10;16.02;;;10.90;;
33421;SDS011;19763;55.798;37.782;2022-12-29T10:53:46;18.52;;;11.27;;
33421;SDS011;19763;55.798;37.782;2022-12-29T10:58:50;19.67;;;12.60;;
33421;SDS011;19763;55.798;37.782;2022-12-29T11:01:19;16.10;;;12.27;;
33421;SDS011;19763;55.798;37.782;2022-12-29T11:06:23;22.52;;;13.43;;
33421;SDS011;19763;55.798;37.782;2022-12-29T11:08:55;23.20;;;13.07;;
33421;SDS011;19763;55.798;37.782;2022-12-29T11:11:24;20.45;;;13.15;;
33421;SDS011;19763;55.798;37.782;2022-12-29T11:13:57;20.23;;;13.40;;
33421;SDS011;19763;55.798;37.782;2022-12-29T11:16:28;18.88;;;12.68;;
33421;SDS011;19763;55.798;37.782;2022-12-29T11:18:56;25.13;;;12.70;;
33421;SDS011;19763;55.798;37.782;2022-12-29T11:21:35;18.30;;;12.30;;
33421;SDS011;19763;55.798;37.782;2022-12-29T11:24:27;23.55;;;15.57;;
33421;SDS011;19763;55.798;37.782;2022-12-29T11:27:10;20.23;;;13.68;;
33421;SDS011;19763;55.798;37.782;2022-12-29T11:29:40;20.23;;;11.70;;
33421;SDS011;19763;55.798;37.782;2022-12-29T11:32:21;21.23;;;12.85;;
33421;SDS011;19763;55.798;37.782;2022-12-29T11:34:48;16.87;;;12.53;;
33421;SDS011;19763;55.798;37.782;2022-12-29T11:37:18;18.58;;;13.10;;
33421;SDS011;19763;55.798;37.782;2022-12-29T11:40:03;19.20;;;12.45;;
33421;SDS011;19763;55.798;37.782;2022-12-29T11:42:37;22.58;;;13.48;;
33421;SDS011;19763;55.798;37.782;2022-12-29T11:45:06;21.38;;;12.85;;
33421;SDS011;19763;55.798;37.782;2022-12-29T11:47:43;20.15;;;12.75;;
33421;SDS011;19763;55.798;37.782;2022-12-29T11:50:19;20.95;;;13.15;;
33421;SDS011;19763;55.798;37.782;2022-12-29T11:52:48;19.38;;;13.82;;
33421;SDS011;19763;55.798;37.782;2022-12-29T11:55:20;22.63;;;13.70;;
33421;SDS011;19763;55.798;37.782;2022-12-29T11:57:49;27.23;;;12.95;;
33421;SDS011;19763;55.798;37.782;2022-12-29T12:00:18;20.98;;;13.38;;
33421;SDS011;19763;55.798;37.782;2022-12-29T12:03:05;19.58;;;12.40;;
33421;SDS011;19763;55.798;37.782;2022-12-29T12:05:41;16.10;;;10.95;;
33421;SDS011;19763;55.798;37.782;2022-12-29T12:11:13;21.00;;;11.18;;
33421;SDS011;19763;55.798;37.782;2022-12-29T12:16:46;18.08;;;12.55;;
33421;SDS011;19763;55.798;37.782;2022-12-29T12:19:39;15.55;;;12.57;;
33421;SDS011;19763;55.798;37.782;2022-12-29T12:22:18;18.75;;;12.30;;
33421;SDS011;19763;55.798;37.782;2022-12-29T12:30:15;17.25;;;13.43;;
33421;SDS011;19763;55.798;37.782;2022-12-29T12:41:07;25.10;;;14.75;;
33421;SDS011;19763;55.798;37.782;2022-12-29T12:52:02;20.95;;;13.45;;
33421;SDS011;19763;55.798;37.782;2022-12-29T12:57:47;22.67;;;13.83;;
33421;SDS011;19763;55.798;37.782;2022-12-29T13:00:19;20.45;;;13.23;;
33421;SDS011;19763;55.798;37.782;2022-12-29T13:33:34;24.85;;;12.38;;
33421;SDS011;19763;55.798;37.782;2022-12-29T13:36:18;22.23;;;12.55;;
33421;SDS011;19763;55.798;37.782;2022-12-29T13:39:08;19.83;;;12.20;;
33421;SDS011;19763;55.798;37.782;2022-12-29T13:41:43;18.15;;;12.35;;
33421;SDS011;19763;55.798;37.782;2022-12-29T13:44:25;19.58;;;12.25;;
33421;SDS011;19763;55.798;37.782;2022-12-29T13:46:57;20.15;;;12.95;;
33421;SDS011;19763;55.798;37.782;2022-12-29T13:49:26;17.17;;;11.25;;
33421;SDS011;19763;55.798;37.782;2022-12-29T13:52:04;19.02;;;11.63;;
33421;SDS011;19763;55.798;37.782;2022-12-29T14:01:08;19.27;;;12.57;;
33421;SDS011;19763;55.798;37.782;2022-12-29T14:03:49;21.73;;;12.43;;
33421;SDS011;19763;55.798;37.782;2022-12-29T14:08:59;28.58;;;13.00;;
33421;SDS011;19763;55.798;37.782;2022-12-29T14:11:35;23.25;;;12.55;;
33421;SDS011;19763;55.798;37.782;2022-12-29T14:14:24;19.35;;;11.77;;
33421;SDS011;19763;55.798;37.782;2022-12-29T14:16:51;20.23;;;13.25;;
33421;SDS011;19763;55.798;37.782;2022-12-29T14:19:24;26.83;;;14.45;;
33421;SDS011;19763;55.798;37.782;2022-12-29T14:21:58;27.88;;;16.35;;
33421;SDS011;19763;55.798;37.782;2022-12-29T14:24:32;23.02;;;15.93;;
33421;SDS011;19763;55.798;37.782;2022-12-29T14:32:35;28.38;;;17.55;;
33421;SDS011;19763;55.798;37.782;2022-12-29T14:35:36;27.00;;;16.73;;
33421;SDS011;19763;55.798;37.782;2022-12-29T14:38:18;28.60;;;17.70;;
33421;SDS011;19763;55.798;37.782;2022-12-29T14:40:46;28.15;;;17.23;;
33421;SDS011;19763;55.798;37.782;2022-12-29T14:43:25;30.67;;;16.60;;
33421;SDS011;19763;55.798;37.782;2022-12-29T14:45:53;24.85;;;15.80;;
33421;SDS011;19763;55.798;37.782;2022-12-29T14:48:30;25.15;;;16.27;;
33421;SDS011;19763;55.798;37.782;2022-12-29T14:51:01;23.35;;;14.65;;
33421;SDS011;19763;55.798;37.782;2022-12-29T14:53:42;23.75;;;15.02;;
33421;SDS011;19763;55.798;37.782;2022-12-29T14:56:11;22.52;;;15.43;;
33421;SDS011;19763;55.798;37.782;2022-12-29T15:01:17;24.80;;;16.67;;
33421;SDS011;19763;55.798;37.782;2022-12-29T15:03:58;26.58;;;17.10;;
33421;SDS011;19763;55.798;37.782;2022-12-29T15:06:30;23.10;;;16.77;;
33421;SDS011;19763;55.798;37.782;2022-12-29T15:09:04;29.70;;;17.42;;
33421;SDS011;19763;55.798;37.782;2022-12-29T15:14:27;27.65;;;17.98;;
33421;SDS011;19763;55.798;37.782;2022-12-29T15:17:00;26.73;;;17.05;;
33421;SDS011;19763;55.798;37.782;2022-12-29T15:19:33;26.55;;;17.30;;
33421;SDS011;19763;55.798;37.782;2022-12-29T15:21:59;30.05;;;17.73;;
33421;SDS011;19763;55.798;37.782;2022-12-29T15:24:25;30.83;;;19.15;;
33421;SDS011;19763;55.798;37.782;2022-12-29T15:26:51;29.15;;;17.05;;
33421;SDS011;19763;55.798;37.782;2022-12-29T15:37:05;27.05;;;18.00;;
33421;SDS011;19763;55.798;37.782;2022-12-29T15:39:32;25.50;;;17.20;;
33421;SDS011;19763;55.798;37.782;2022-12-29T15:44:45;26.45;;;17.60;;
33421;SDS011;19763;55.798;37.782;2022-12-29T15:47:12;29.25;;;17.80;;
33421;SDS011;19763;55.798;37.782;2022-12-29T15:49:49;29.35;;;18.98;;
33421;SDS011;19763;55.798;37.782;2022-12-29T15:52:18;34.30;;;17.90;;
33421;SDS011;19763;55.798;37.782;2022-12-29T15:54:46;29.23;;;17.95;;
33421;SDS011;19763;55.798;37.782;2022-12-29T15:57:21;38.47;;;19.55;;
33421;SDS011;19763;55.798;37.782;2022-12-29T15:59:49;30.75;;;19.38;;
33421;SDS011;19763;55.798;37.782;2022-12-29T16:02:15;34.60;;;19.48;;
33421;SDS011;19763;55.798;37.782;2022-12-29T16:04:41;36.75;;;19.95;;
33421;SDS011;19763;55.798;37.782;2022-12-29T16:09:56;35.60;;;20.80;;
33421;SDS011;19763;55.798;37.782;2022-12-29T16:12:25;36.83;;;22.33;;
33421;SDS011;19763;55.798;37.782;2022-12-29T16:14:56;37.33;;;19.88;;
33421;SDS011;19763;55.798;37.782;2022-12-29T16:17:26;41.50;;;22.42;;
33421;SDS011;19763;55.798;37.782;2022-12-29T16:19:58;39.03;;;22.50;;
33421;SDS011;19763;55.798;37.782;2022-12-29T16:22:34;44.05;;;23.17;;
33421;SDS011;19763;55.798;37.782;2022-12-29T16:25:21;35.47;;;20.83;;
33421;SDS011;19763;55.798;37.782;2022-12-29T16:27:49;38.30;;;21.25;;
33421;SDS011;19763;55.798;37.782;2022-12-29T16:32:48;45.83;;;23.75;;
33421;SDS011;19763;55.798;37.782;2022-12-29T16:35:17;43.10;;;24.00;;
33421;SDS011;19763;55.798;37.782;2022-12-29T16:37:45;41.22;;;22.45;;
33421;SDS011;19763;55.798;37.782;2022-12-29T16:42:47;42.22;;;24.65;;
33421;SDS011;19763;55.798;37.782;2022-12-29T16:50:30;44.17;;;26.13;;
33421;SDS011;19763;55.798;37.782;2022-12-29T16:52:56;48.85;;;26.50;;
33421;SDS011;19763;55.798;37.782;2022-12-29T16:55:22;45.08;;;25.50;;
33421;SDS011;19763;55.798;37.782;2022-12-29T16:57:48;48.38;;;27.80;;
33421;SDS011;19763;55.798;37.782;2022-12-29T17:00:29;56.22;;;28.45;;
33421;SDS011;19763;55.798;37.782;2022-12-29T17:05:26;50.13;;;26.92;;
33421;SDS011;19763;55.798;37.782;2022-12-29T17:07:52;51.33;;;26.95;;
33421;SDS011;19763;55.798;37.782;2022-12-29T17:10:18;65.95;;;34.55;;
33421;SDS011;19763;55.798;37.782;2022-12-29T17:12:44;55.38;;;27.25;;
33421;SDS011;19763;55.798;37.782;2022-12-29T17:15:18;52.55;;;26.80;;
33421;SDS011;19763;55.798;37.782;2022-12-29T17:17:49;53.08;;;28.98;;
33421;SDS011;19763;55.798;37.782;2022-12-29T17:20:20;56.85;;;27.23;;
33421;SDS011;19763;55.798;37.782;2022-12-29T17:22:48;52.78;;;27.25;;
33421;SDS011;19763;55.798;37.782;2022-12-29T17:25:16;53.15;;;26.63;;
33421;SDS011;19763;55.798;37.782;2022-12-29T17:27:45;49.35;;;25.95;;
33421;SDS011;19763;55.798;37.782;2022-12-29T17:30:15;61.42;;;27.08;;
33421;SDS011;19763;55.798;37.782;2022-12-29T17:32:46;53.08;;;25.95;;
33421;SDS011;19763;55.798;37.782;2022-12-29T17:35:16;50.70;;;25.40;;
33421;SDS011;19763;55.798;37.782;2022-12-29T17:37:43;53.50;;;24.73;;
33421;SDS011;19763;55.798;37.782;2022-12-29T17:40:13;54.35;;;24.35;;
33421;SDS011;19763;55.798;37.782;2022-12-29T17:42:42;48.97;;;25.80;;
33421;SDS011;19763;55.798;37.782;2022-12-29T17:45:16;48.00;;;24.25;;
33421;SDS011;19763;55.798;37.782;2022-12-29T17:47:44;92.30;;;43.50;;
33421;SDS011;19763;55.798;37.782;2022-12-29T17:50:11;57.40;;;27.67;;
33421;SDS011;19763;55.798;37.782;2022-12-29T17:52:38;54.00;;;23.25;;
33421;SDS011;19763;55.798;37.782;2022-12-29T17:55:04;46.97;;;23.25;;
33421;SDS011;19763;55.798;37.782;2022-12-29T17:57:30;42.75;;;22.95;;
33421;SDS011;19763;55.798;37.782;2022-12-29T17:59:56;46.38;;;23.77;;
33421;SDS011;19763;55.798;37.782;2022-12-29T18:02:30;50.33;;;23.75;;
33421;SDS011;19763;55.798;37.782;2022-12-29T18:04:57;61.00;;;27.13;;
33421;SDS011;19763;55.798;37.782;2022-12-29T18:07:26;44.25;;;23.42;;
33421;SDS011;19763;55.798;37.782;2022-12-29T18:09:53;43.83;;;21.50;;
33421;SDS011;19763;55.798;37.782;2022-12-29T18:12:24;56.08;;;23.33;;
33421;SDS011;19763;55.798;37.782;2022-12-29T18:14:53;49.53;;;23.98;;
33421;SDS011;19763;55.798;37.782;2022-12-29T18:17:19;47.10;;;23.75;;
33421;SDS011;19763;55.798;37.782;2022-12-29T18:19:44;44.92;;;22.88;;
33421;SDS011;19763;55.798;37.782;2022-12-29T18:22:10;46.88;;;23.25;;
33421;SDS011;19763;55.798;37.782;2022-12-29T18:24:36;47.05;;;24.85;;